createdAt,value
2022-08-28T00:02:59.843Z,3.83
2022-08-28T00:06:02.311Z,4.03
2022-08-28T00:09:05.038Z,3.60
2022-08-28T00:12:07.698Z,3.45
2022-08-28T00:15:14.210Z,3.33
2022-08-28T00:18:16.385Z,3.72
2022-08-28T00:21:18.505Z,3.60
2022-08-28T00:24:20.380Z,3.47
2022-08-28T00:27:40.673Z,3.45
2022-08-28T00:33:47.553Z,4.10
2022-08-28T00:36:49.850Z,3.33
2022-08-28T00:39:51.928Z,3.70
2022-08-28T00:42:54.772Z,3.63
2022-08-28T00:45:56.344Z,3.47
2022-08-28T00:48:57.979Z,4.32
2022-08-28T00:52:08.020Z,3.72
2022-08-28T00:55:13.909Z,4.15
2022-08-28T00:58:16.060Z,3.80
2022-08-28T01:01:18.955Z,3.60
2022-08-28T01:04:22.426Z,3.90
2022-08-28T01:07:24.008Z,3.50
2022-08-28T01:10:29.481Z,3.72
2022-08-28T01:13:32.421Z,3.70
2022-08-28T01:16:35.037Z,3.53
2022-08-28T01:20:04.994Z,3.42
2022-08-28T01:23:34.432Z,3.60
2022-08-28T01:26:38.315Z,3.97
2022-08-28T01:29:39.912Z,3.47
2022-08-28T01:32:45.372Z,4.10
2022-08-28T01:35:48.011Z,3.65
2022-08-28T01:38:55.933Z,3.80
2022-08-28T01:41:59.523Z,4.30
2022-08-28T01:45:01.044Z,3.45
2022-08-28T01:48:02.607Z,3.20
2022-08-28T01:51:05.337Z,3.35
2022-08-28T01:54:08.137Z,3.25
2022-08-28T01:57:11.389Z,3.35
2022-08-28T02:00:14.910Z,3.92
2022-08-28T02:03:16.695Z,3.75
2022-08-28T02:06:19.132Z,3.97
2022-08-28T02:09:20.703Z,3.50
2022-08-28T02:12:22.217Z,3.60
2022-08-28T02:15:25.493Z,3.58
2022-08-28T02:18:27.360Z,3.65
2022-08-28T02:21:29.200Z,4.10
2022-08-28T02:24:30.804Z,3.88
2022-08-28T02:27:32.467Z,3.70
2022-08-28T02:30:34.565Z,3.53
2022-08-28T02:33:38.414Z,3.30
2022-08-28T02:36:41.954Z,4.03
2022-08-28T02:39:44.374Z,4.00
2022-08-28T02:42:46.276Z,3.90
2022-08-28T02:45:48.237Z,3.60
2022-08-28T02:48:50.312Z,3.58
2022-08-28T02:51:52.148Z,3.88
2022-08-28T02:54:54.860Z,3.88
2022-08-28T02:57:56.422Z,3.88
2022-08-28T03:01:00.365Z,3.45
2022-08-28T03:04:05.390Z,3.42
2022-08-28T03:07:09.184Z,3.65
2022-08-28T03:10:13.341Z,3.63
2022-08-28T03:13:26.823Z,3.15
2022-08-28T03:16:30.231Z,3.67
2022-08-28T03:19:32.577Z,3.70
2022-08-28T03:22:52.658Z,3.88
2022-08-28T03:26:01.208Z,4.07
2022-08-28T03:29:03.060Z,3.50
2022-08-28T03:32:04.709Z,3.95
2022-08-28T03:35:06.823Z,3.72
2022-08-28T03:38:08.405Z,3.50
2022-08-28T03:41:16.444Z,3.28
2022-08-28T03:44:18.012Z,3.40
2022-08-28T03:47:19.531Z,3.88
2022-08-28T03:50:23.231Z,2.90
2022-08-28T03:53:29.049Z,3.90
2022-08-28T03:56:31.155Z,3.20
2022-08-28T03:59:33.699Z,3.45
2022-08-28T04:02:35.547Z,2.97
2022-08-28T04:05:37.676Z,3.45
2022-08-28T04:08:39.355Z,3.03
2022-08-28T04:11:44.242Z,2.83
2022-08-28T04:14:45.763Z,3.53
2022-08-28T04:17:47.309Z,3.38
2022-08-28T04:21:02.273Z,3.00
2022-08-28T04:24:07.808Z,3.40
2022-08-28T04:27:10.963Z,3.30
2022-08-28T04:30:13.547Z,3.42
2022-08-28T04:33:15.080Z,3.65
2022-08-28T04:36:18.086Z,2.95
2022-08-28T04:39:19.983Z,3.35
2022-08-28T04:42:21.945Z,3.30
2022-08-28T04:45:23.623Z,3.42
2022-08-28T04:48:25.470Z,2.88
2022-08-28T04:51:27.999Z,3.13
2022-08-28T04:54:29.563Z,2.75
2022-08-28T04:57:34.526Z,3.05
2022-08-28T05:00:42.944Z,3.25
2022-08-28T05:03:45.883Z,2.55
2022-08-28T05:06:47.868Z,3.65
2022-08-28T05:09:53.848Z,3.40
2022-08-28T05:12:55.370Z,2.75
2022-08-28T05:15:56.922Z,3.25
2022-08-28T05:19:00.664Z,2.83
2022-08-28T05:22:02.244Z,2.65
2022-08-28T05:25:04.126Z,3.00
2022-08-28T05:28:11.341Z,3.28
2022-08-28T05:31:17.919Z,3.00
2022-08-28T05:34:20.270Z,3.53
2022-08-28T05:37:21.852Z,3.00
2022-08-28T05:40:23.616Z,3.15
2022-08-28T05:43:25.690Z,3.15
2022-08-28T05:46:30.679Z,2.95
2022-08-28T05:49:32.283Z,2.97
2022-08-28T05:52:34.943Z,3.00
2022-08-28T05:55:40.418Z,2.70
2022-08-28T05:58:42.451Z,3.13
2022-08-28T06:01:46.706Z,3.00
2022-08-28T06:04:51.378Z,2.88
2022-08-28T06:07:52.904Z,2.75
2022-08-28T06:10:54.536Z,3.65
2022-08-28T06:13:56.136Z,2.78
2022-08-28T06:17:00.048Z,2.90
2022-08-28T06:20:02.236Z,2.95
2022-08-28T06:23:03.874Z,3.05
2022-08-28T06:26:07.115Z,2.40
2022-08-28T06:29:11.833Z,3.00
2022-08-28T06:32:13.513Z,3.00
2022-08-28T06:35:15.143Z,2.80
2022-08-28T06:38:18.165Z,2.80
2022-08-28T06:41:19.755Z,2.60
2022-08-28T06:44:22.059Z,3.05
2022-08-28T06:47:23.588Z,2.33
2022-08-28T06:50:25.118Z,2.63
2022-08-28T06:53:29.295Z,2.90
2022-08-28T06:56:31.426Z,2.63
2022-08-28T06:59:33.113Z,2.53
2022-08-28T07:02:34.728Z,2.47
2022-08-28T07:05:36.317Z,2.78
2022-08-28T07:08:38.985Z,2.45
2022-08-28T07:11:43.419Z,2.53
2022-08-28T07:14:45.555Z,2.65
2022-08-28T07:17:47.177Z,2.70
2022-08-28T07:20:57.327Z,2.22
2022-08-28T07:23:58.988Z,2.80
2022-08-28T07:27:00.531Z,2.45
2022-08-28T07:30:02.139Z,2.67
2022-08-28T07:33:03.801Z,2.58
2022-08-28T07:36:07.806Z,2.33
2022-08-28T07:39:11.343Z,2.55
2022-08-28T07:42:35.554Z,2.53
2022-08-28T07:45:37.443Z,2.47
2022-08-28T07:48:41.090Z,2.50
2022-08-28T07:51:42.687Z,2.70
2022-08-28T07:54:44.235Z,2.20
2022-08-28T07:57:46.703Z,2.40
2022-08-28T08:00:48.303Z,2.65
2022-08-28T08:03:50.218Z,2.33
2022-08-28T08:06:58.318Z,2.50
2022-08-28T08:09:59.932Z,3.53
2022-08-28T08:13:01.533Z,2.88
2022-08-28T08:16:03.232Z,3.47
2022-08-28T08:19:04.999Z,2.70
2022-08-28T08:22:07.146Z,2.90
2022-08-28T08:25:09.156Z,2.63
2022-08-28T08:28:10.680Z,2.78
2022-08-28T08:31:17.663Z,2.03
2022-08-28T08:34:19.454Z,2.75
2022-08-28T08:37:21.744Z,2.13
2022-08-28T08:40:23.563Z,2.70
2022-08-28T08:43:27.266Z,3.17
2022-08-28T08:46:59.560Z,2.28
2022-08-28T08:50:17.382Z,2.80
2022-08-28T08:53:46.101Z,2.63
2022-08-28T08:56:48.876Z,2.63
2022-08-28T08:59:50.757Z,2.72
2022-08-28T09:03:13.173Z,2.30
2022-08-28T09:06:51.977Z,2.17
2022-08-28T09:09:55.852Z,2.35
2022-08-28T09:13:05.001Z,2.10
2022-08-28T09:16:20.649Z,2.60
2022-08-28T09:19:23.089Z,2.40
2022-08-28T09:22:24.642Z,2.75
2022-08-28T09:25:44.307Z,2.38
2022-08-28T09:29:00.074Z,2.20
2022-08-28T09:32:27.623Z,2.33
2022-08-28T09:35:35.147Z,2.35
2022-08-28T09:38:38.988Z,2.38
2022-08-28T09:42:10.799Z,2.80
2022-08-28T09:45:13.485Z,2.50
2022-08-28T09:48:35.638Z,2.80
2022-08-28T09:51:39.277Z,2.88
2022-08-28T09:54:43.515Z,2.80
2022-08-28T09:57:47.097Z,2.30
2022-08-28T10:01:06.847Z,2.58
2022-08-28T10:04:17.955Z,2.90
2022-08-28T10:07:38.535Z,2.90
2022-08-28T10:14:00.804Z,3.70
2022-08-28T10:17:36.943Z,3.55
2022-08-28T10:21:03.308Z,4.15
2022-08-28T10:24:28.978Z,4.15
2022-08-28T10:28:06.309Z,3.58
2022-08-28T10:31:23.629Z,3.28
2022-08-28T10:34:27.954Z,3.17
2022-08-28T10:37:42.734Z,2.90
2022-08-28T10:41:09.577Z,3.42
2022-08-28T10:44:25.599Z,3.17
2022-08-28T10:47:29.385Z,2.70
2022-08-28T10:50:47.614Z,3.13
2022-08-28T10:53:54.762Z,2.55
2022-08-28T10:57:17.525Z,3.00
2022-08-28T11:00:22.942Z,2.78
2022-08-28T11:03:35.435Z,3.05
2022-08-28T11:06:40.700Z,2.58
2022-08-28T11:09:47.709Z,2.42
2022-08-28T11:12:52.103Z,2.80
2022-08-28T11:15:53.851Z,2.60
2022-08-28T11:19:26.707Z,2.95
2022-08-28T11:22:40.512Z,2.47
2022-08-28T11:25:50.466Z,2.92
2022-08-28T11:28:52.124Z,2.95
2022-08-28T11:32:31.744Z,2.60
2022-08-28T11:35:47.038Z,2.47
2022-08-28T11:38:51.530Z,2.80
2022-08-28T11:42:33.997Z,2.80
2022-08-28T11:45:59.214Z,2.97
2022-08-28T11:49:02.874Z,2.75
2022-08-28T11:52:38.208Z,3.03
2022-08-28T11:56:07.703Z,2.55
2022-08-28T11:59:09.953Z,2.20
2022-08-28T12:02:39.648Z,2.30
2022-08-28T12:05:45.371Z,2.50
2022-08-28T12:08:52.954Z,2.60
2022-08-28T12:12:00.147Z,2.45
2022-08-28T12:15:08.032Z,2.30
2022-08-28T12:18:12.501Z,2.50
2022-08-28T12:21:21.410Z,2.50
2022-08-28T12:24:24.372Z,2.47
2022-08-28T12:27:26.815Z,2.63
2022-08-28T12:30:33.183Z,2.10
2022-08-28T12:33:56.877Z,2.55
2022-08-28T12:37:01.334Z,3.00
2022-08-28T12:40:41.303Z,2.55
2022-08-28T12:43:48.372Z,2.40
2022-08-28T12:46:50.040Z,2.55
2022-08-28T12:49:51.593Z,2.40
2022-08-28T12:53:00.254Z,2.40
2022-08-28T12:56:02.117Z,2.08
2022-08-28T12:59:37.776Z,2.20
2022-08-28T13:02:41.232Z,2.25
2022-08-28T13:05:42.934Z,2.40
2022-08-28T13:08:48.130Z,2.55
2022-08-28T13:11:51.505Z,2.33
2022-08-28T13:14:53.232Z,2.10
2022-08-28T13:17:54.880Z,2.10
2022-08-28T13:21:34.464Z,2.17
2022-08-28T13:24:45.995Z,2.33
2022-08-28T13:27:56.481Z,2.10
2022-08-28T13:30:58.943Z,2.40
2022-08-28T13:34:05.014Z,2.15
2022-08-28T13:37:14.843Z,1.90
2022-08-28T13:40:56.955Z,2.33
2022-08-28T13:43:53.476Z,1.88
2022-08-28T13:46:56.204Z,1.98
2022-08-28T13:49:57.743Z,2.35
2022-08-28T13:52:59.280Z,2.30
2022-08-28T13:56:01.312Z,2.20
2022-08-28T13:59:02.905Z,2.00
2022-08-28T14:02:26.459Z,2.13
2022-08-28T14:05:29.110Z,2.15
2022-08-28T14:08:31.066Z,1.90
2022-08-28T14:11:33.229Z,2.10
2022-08-28T14:14:36.062Z,2.00
2022-08-28T14:17:37.652Z,1.70
2022-08-28T14:20:39.544Z,1.85
2022-08-28T14:23:41.165Z,1.88
2022-08-28T14:26:42.765Z,1.90
2022-08-28T14:29:45.222Z,2.10
2022-08-28T14:32:46.793Z,1.77
2022-08-28T14:35:49.034Z,1.90
2022-08-28T14:38:54.028Z,2.03
2022-08-28T14:41:56.076Z,2.50
2022-08-28T14:44:57.699Z,2.22
2022-08-28T14:47:59.520Z,2.00
2022-08-28T14:51:02.060Z,2.50
2022-08-28T14:54:04.080Z,2.15
2022-08-28T14:57:05.963Z,2.50
2022-08-28T15:00:09.144Z,1.98
2022-08-28T15:06:20.183Z,1.95
2022-08-28T15:09:21.735Z,1.88
2022-08-28T15:12:23.671Z,2.22
2022-08-28T15:15:25.230Z,2.20
2022-08-28T15:18:26.781Z,2.05
2022-08-28T15:21:34.171Z,2.22
2022-08-28T15:24:36.254Z,2.03
2022-08-28T15:27:38.018Z,2.38
2022-08-28T15:30:39.709Z,2.50
2022-08-28T15:33:45.343Z,2.05
2022-08-28T15:36:55.257Z,1.90
2022-08-28T15:40:16.429Z,2.03
2022-08-28T15:46:19.903Z,2.00
2022-08-28T15:49:23.756Z,2.33
2022-08-28T15:52:25.723Z,2.40
2022-08-28T15:55:27.808Z,1.90
2022-08-28T15:58:31.310Z,2.42
2022-08-28T16:01:32.839Z,1.75
2022-08-28T16:04:34.409Z,1.98
2022-08-28T16:07:36.080Z,2.20
2022-08-28T16:10:38.318Z,2.20
2022-08-28T16:13:40.794Z,2.38
2022-08-28T16:16:46.380Z,2.38
2022-08-28T16:19:50.762Z,2.63
2022-08-28T16:22:52.930Z,2.30
2022-08-28T16:25:55.224Z,2.00
2022-08-28T16:28:56.913Z,2.05
2022-08-28T16:31:58.818Z,2.28
2022-08-28T16:35:03.470Z,2.08
2022-08-28T16:38:05.175Z,2.00
2022-08-28T16:41:12.706Z,2.30
2022-08-28T16:44:14.262Z,2.25
2022-08-28T16:47:16.041Z,2.55
2022-08-28T16:50:19.360Z,2.30
2022-08-28T16:53:27.130Z,2.25
2022-08-28T16:56:28.989Z,2.10
2022-08-28T16:59:30.844Z,2.15
2022-08-28T17:02:33.703Z,2.40
2022-08-28T17:05:36.735Z,1.90
2022-08-28T17:08:40.227Z,2.00
2022-08-28T17:11:42.023Z,2.13
2022-08-28T17:14:44.444Z,2.42
2022-08-28T17:17:46.795Z,2.42
2022-08-28T17:21:07.034Z,2.42
2022-08-28T17:24:12.449Z,2.63
2022-08-28T17:27:16.632Z,2.92
2022-08-28T17:30:24.530Z,3.08
2022-08-28T17:33:26.375Z,2.80
2022-08-28T17:36:33.903Z,2.58
2022-08-28T17:39:35.972Z,2.70
2022-08-28T17:42:37.638Z,3.28
2022-08-28T17:45:39.620Z,2.97
2022-08-28T17:48:41.432Z,2.78
2022-08-28T17:51:51.111Z,3.08
2022-08-28T17:54:52.673Z,2.78
2022-08-28T17:57:54.971Z,3.10
2022-08-28T18:00:57.686Z,2.97
2022-08-28T18:03:59.225Z,2.50
2022-08-28T18:07:01.768Z,2.78
2022-08-28T18:10:05.741Z,2.60
2022-08-28T18:13:07.351Z,2.63
2022-08-28T18:16:09.109Z,2.35
2022-08-28T18:19:11.887Z,2.85
2022-08-28T18:22:13.604Z,2.60
2022-08-28T18:25:35.009Z,2.78
2022-08-28T18:28:36.964Z,2.50
2022-08-28T18:31:38.616Z,2.90
2022-08-28T18:34:40.296Z,2.45
2022-08-28T18:37:42.153Z,2.70
2022-08-28T18:40:44.953Z,2.80
2022-08-28T18:43:47.225Z,2.80
2022-08-28T18:46:48.910Z,2.47
2022-08-28T18:49:50.470Z,2.63
2022-08-28T18:52:53.182Z,2.88
2022-08-28T18:55:55.139Z,2.50
2022-08-28T18:58:56.741Z,2.92
2022-08-28T19:01:58.844Z,2.58
2022-08-28T19:05:00.493Z,2.78
2022-08-28T19:08:02.114Z,2.13
2022-08-28T19:11:12.327Z,2.20
2022-08-28T19:14:13.864Z,2.33
2022-08-28T19:17:19.093Z,2.53
2022-08-28T19:20:23.170Z,2.13
2022-08-28T19:23:24.714Z,2.50
2022-08-28T19:26:27.402Z,2.38
2022-08-28T19:29:29.423Z,2.30
2022-08-28T19:32:31.430Z,2.40
2022-08-28T19:35:33.809Z,2.38
2022-08-28T19:38:35.461Z,2.10
2022-08-28T19:41:37.425Z,2.47
2022-08-28T19:44:39.118Z,2.75
2022-08-28T19:47:40.895Z,2.50
2022-08-28T19:50:44.000Z,1.90
2022-08-28T19:53:45.818Z,2.40
2022-08-28T19:56:47.427Z,2.30
2022-08-28T19:59:48.963Z,2.30
2022-08-28T20:02:54.452Z,2.55
2022-08-28T20:05:56.070Z,2.08
2022-08-28T20:08:58.296Z,2.00
2022-08-28T20:12:00.797Z,2.20
2022-08-28T20:15:03.710Z,2.22
2022-08-28T20:18:06.250Z,2.22
2022-08-28T20:21:11.027Z,2.60
2022-08-28T20:24:17.664Z,2.17
2022-08-28T20:27:19.568Z,2.08
2022-08-28T20:30:21.769Z,2.50
2022-08-28T20:33:23.625Z,2.40
2022-08-28T20:36:26.312Z,2.15
2022-08-28T20:39:28.583Z,2.25
2022-08-28T20:42:31.649Z,3.15
2022-08-28T20:45:33.494Z,2.67
2022-08-28T20:48:35.336Z,2.88
2022-08-28T20:51:55.543Z,2.72
2022-08-28T20:54:58.022Z,2.60
2022-08-28T20:57:59.559Z,2.50
2022-08-28T21:01:01.668Z,2.75
2022-08-28T21:04:03.867Z,2.78
2022-08-28T21:07:05.861Z,2.80
2022-08-28T21:10:08.172Z,2.50
2022-08-28T21:13:11.082Z,2.83
2022-08-28T21:16:12.672Z,2.65
2022-08-28T21:19:16.644Z,2.42
2022-08-28T21:22:18.398Z,2.70
2022-08-28T21:25:26.566Z,3.10
2022-08-28T21:28:28.485Z,3.08
2022-08-28T21:31:30.101Z,2.83
2022-08-28T21:34:31.689Z,2.85
2022-08-28T21:37:33.421Z,2.67
2022-08-28T21:40:37.760Z,2.70
2022-08-28T21:43:40.936Z,2.90
2022-08-28T21:46:42.524Z,3.25
2022-08-28T21:49:48.964Z,2.80
2022-08-28T21:52:50.506Z,2.50
2022-08-28T21:55:54.359Z,2.58
2022-08-28T21:58:56.957Z,2.63
2022-08-28T22:01:58.536Z,2.30
2022-08-28T22:05:00.114Z,2.47
2022-08-28T22:08:01.693Z,2.45
2022-08-28T22:11:03.299Z,2.35
2022-08-28T22:14:04.817Z,1.95
2022-08-28T22:17:11.251Z,2.42
2022-08-28T22:20:13.917Z,2.80
2022-08-28T22:23:17.453Z,2.10
2022-08-28T22:26:20.591Z,2.08
2022-08-28T22:29:22.143Z,2.40
2022-08-28T22:32:25.803Z,1.98
2022-08-28T22:35:28.382Z,2.30
2022-08-28T22:38:30.301Z,2.40
2022-08-28T22:41:32.396Z,2.33
2022-08-28T22:44:34.477Z,2.20
2022-08-28T22:47:36.392Z,2.30
2022-08-28T22:50:37.882Z,2.20
2022-08-28T22:53:41.517Z,2.33
2022-08-28T22:56:43.136Z,2.40
2022-08-28T22:59:44.768Z,2.40
2022-08-28T23:02:47.712Z,2.00
2022-08-28T23:05:49.279Z,2.10
2022-08-28T23:08:50.794Z,1.88
2022-08-28T23:11:52.343Z,2.17
2022-08-28T23:14:53.901Z,2.10
2022-08-28T23:17:55.465Z,1.95
2022-08-28T23:20:57.148Z,2.38
2022-08-28T23:23:59.513Z,1.95
2022-08-28T23:27:19.414Z,2.08
2022-08-28T23:30:23.167Z,2.15
2022-08-28T23:33:24.737Z,2.10
2022-08-28T23:36:26.871Z,1.90
2022-08-28T23:39:28.427Z,2.40
2022-08-28T23:42:29.967Z,2.17
2022-08-28T23:45:31.787Z,2.10
2022-08-28T23:48:33.924Z,2.30
2022-08-28T23:51:36.947Z,2.30
2022-08-28T23:54:38.570Z,2.08
2022-08-28T23:57:40.312Z,2.08
